Time;durP1;ratioP1;P1;durP2;ratioP2;P2;SDS_P1;SDS_P2;PMS_P1;PMS_P2;Temp;Humidity;BMP_temperature;BMP_pressure;BME280_temperature;BME280_humidity;BME280_pressure;Samples;Min_cycle;Max_cycle;Signal;HPM_P1;HPM_P2
2023/02/20 00:00:52;;;;;;;13.90;4.00;;;;;;;1.98;75.59;100794.91;103948;1279;98617;-76
2023/02/20 00:03:37;;;;;;;9.00;3.60;;;;;;;1.99;75.55;100791.91;103929;1279;98011;-78
2023/02/20 00:06:21;;;;;;;11.60;4.50;;;;;;;1.98;75.53;100790.70;103981;1276;98534;-76
2023/02/20 00:09:06;;;;;;;8.10;3.80;;;;;;;1.98;75.75;100787.53;103981;1276;101469;-77
2023/02/20 00:11:51;;;;;;;9.60;3.90;;;;;;;1.98;75.84;100781.36;104145;1279;99183;-78
2023/02/20 00:14:36;;;;;;;14.80;4.30;;;;;;;1.97;75.84;100772.87;104298;1278;97920;-76
2023/02/20 00:17:21;;;;;;;10.50;4.20;;;;;;;1.96;75.74;100770.33;104208;1277;99669;-78
2023/02/20 00:20:06;;;;;;;12.30;3.70;;;;;;;1.95;75.96;100769.86;104294;1277;98001;-77
2023/02/20 00:22:51;;;;;;;8.90;3.80;;;;;;;1.94;75.98;100765.30;104387;1274;102921;-78
2023/02/20 00:25:36;;;;;;;11.50;5.20;;;;;;;1.94;75.93;100762.86;104297;1276;100338;-77
2023/02/20 00:28:21;;;;;;;10.40;4.40;;;;;;;1.93;75.89;100771.20;104269;1279;98548;-77
2023/02/20 00:31:06;;;;;;;11.50;4.40;;;;;;;1.93;76.13;100773.67;104318;1274;97931;-76
2023/02/20 00:33:51;;;;;;;9.90;3.70;;;;;;;1.92;76.18;100778.37;104029;1276;99585;-77
2023/02/20 00:36:36;;;;;;;10.40;4.30;;;;;;;1.93;76.10;100780.91;104289;1279;102565;-77
2023/02/20 00:39:21;;;;;;;9.80;4.30;;;;;;;1.94;76.29;100779.13;104346;1277;99251;-77
2023/02/20 00:42:06;;;;;;;11.60;3.90;;;;;;;1.93;76.30;100780.59;103781;1280;98463;-77
2023/02/20 00:44:50;;;;;;;10.00;4.00;;;;;;;1.92;76.53;100778.55;103981;1275;99278;-77
2023/02/20 00:47:35;;;;;;;15.90;5.70;;;;;;;1.93;76.45;100777.59;104044;1280;97923;-78
2023/02/20 00:50:20;;;;;;;12.20;3.90;;;;;;;1.93;76.57;100779.33;104258;1278;101442;-77
2023/02/20 00:53:05;;;;;;;11.00;5.00;;;;;;;1.93;76.63;100780.89;104432;1276;99916;-78
2023/02/20 00:55:50;;;;;;;14.10;5.60;;;;;;;1.94;76.59;100778.23;104201;1280;98551;-79
2023/02/20 00:58:35;;;;;;;10.90;3.90;;;;;;;1.95;76.74;100775.85;104232;1274;97988;-77
2023/02/20 01:01:21;;;;;;;13.40;4.60;;;;;;;1.96;76.70;100771.55;104416;1274;97880;-78
2023/02/20 01:04:05;;;;;;;9.40;3.80;;;;;;;1.96;76.76;100765.69;104407;1274;102133;-77
2023/02/20 01:06:50;;;;;;;8.40;3.50;;;;;;;1.98;76.95;100767.81;104301;1274;100906;-77
2023/02/20 01:09:35;;;;;;;7.40;3.20;;;;;;;1.99;76.84;100769.10;104313;1274;97994;-77
2023/02/20 01:12:19;;;;;;;11.90;4.00;;;;;;;2.01;76.93;100765.82;104048;1277;98498;-77
2023/02/20 01:15:08;;;;;;;6.60;3.40;;;;;;;2.02;76.92;100765.06;104179;1274;99629;-77
2023/02/20 01:17:53;;;;;;;13.00;4.70;;;;;;;2.04;76.86;100768.35;103962;1279;102631;-78
2023/02/20 01:20:37;;;;;;;9.50;3.30;;;;;;;2.06;76.80;100769.59;104393;1277;99151;-77
2023/02/20 01:23:22;;;;;;;7.30;3.10;;;;;;;2.07;76.85;100767.73;104411;1274;98206;-76
2023/02/20 01:26:07;;;;;;;9.70;4.70;;;;;;;2.09;76.71;100762.14;104242;1274;97963;-80
2023/02/20 01:28:52;;;;;;;11.00;3.80;;;;;;;2.11;76.76;100757.59;104433;1274;98042;-77
2023/02/20 01:31:37;;;;;;;8.00;4.00;;;;;;;2.12;76.68;100756.23;103956;1274;101743;-77
2023/02/20 01:34:21;;;;;;;10.80;3.90;;;;;;;2.14;76.60;100755.88;104360;1274;100433;-78
2023/02/20 01:37:06;;;;;;;9.60;3.70;;;;;;;2.16;76.61;100757.45;104038;1280;98568;-76
2023/02/20 01:39:51;;;;;;;9.40;2.90;;;;;;;2.17;76.62;100764.78;103854;1279;99168;-78
2023/02/20 01:42:35;;;;;;;7.10;2.90;;;;;;;2.19;76.52;100768.16;104214;1279;97898;-78
2023/02/20 01:45:20;;;;;;;6.60;2.50;;;;;;;2.20;76.55;100769.80;104206;1274;103529;-76
2023/02/20 01:48:05;;;;;;;6.60;2.70;;;;;;;2.22;76.43;100766.30;104051;1276;99201;-77
2023/02/20 01:50:54;;;;;;;4.80;2.10;;;;;;;2.23;76.22;100769.59;104074;1280;99189;-77
2023/02/20 01:53:42;;;;;;;9.40;2.10;;;;;;;2.24;76.46;100764.38;104126;1280;97931;-78
2023/02/20 01:56:27;;;;;;;9.30;3.70;;;;;;;2.25;76.40;100762.72;104308;1277;98005;-77
2023/02/20 01:59:14;;;;;;;8.60;2.90;;;;;;;2.24;76.24;100766.27;104000;1274;102373;-78
2023/02/20 02:01:59;;;;;;;5.90;2.50;;;;;;;2.22;76.27;100762.39;104019;1275;100052;-78
2023/02/20 02:04:46;;;;;;;6.90;2.50;;;;;;;2.21;76.39;100761.96;104003;1274;99038;-77
2023/02/20 02:07:30;;;;;;;9.40;3.10;;;;;;;2.20;76.37;100764.16;104289;1279;97993;-77
2023/02/20 02:10:20;;;;;;;6.80;2.50;;;;;;;2.20;76.48;100766.50;104109;1279;98515;-77
2023/02/20 02:13:05;;;;;;;10.30;3.70;;;;;;;2.19;76.49;100763.42;103793;1274;101344;-77
2023/02/20 02:15:52;;;;;;;9.70;3.70;;;;;;;2.17;76.59;100753.17;103998;1280;99935;-77
2023/02/20 02:19:22;;;;;;;8.10;3.80;;;;;;;2.16;76.72;100744.10;104331;1277;98340;-78
2023/02/20 02:22:28;;;;;;;7.50;3.10;;;;;;;2.15;76.83;100735.21;104237;1280;98592;-77
2023/02/20 02:25:34;;;;;;;9.10;3.20;;;;;;;2.14;76.93;100735.06;104271;1278;99431;-77
2023/02/20 02:28:42;;;;;;;10.60;3.80;;;;;;;2.13;76.93;100734.66;104253;1277;101467;-77
2023/02/20 02:31:38;;;;;;;7.20;3.00;;;;;;;2.11;77.12;100740.32;104353;1278;99746;-77
2023/02/20 02:34:45;;;;;;;11.60;4.40;;;;;;;2.09;77.13;100749.08;104258;1277;98018;-77
2023/02/20 02:37:36;;;;;;;9.80;3.90;;;;;;;2.08;77.12;100752.88;104008;1280;98020;-77
2023/02/20 02:40:29;;;;;;;6.40;3.20;;;;;;;2.08;77.19;100746.36;104207;1274;98002;-77
2023/02/20 02:43:22;;;;;;;14.00;4.80;;;;;;;2.07;77.43;100741.56;104190;1279;101428;-78
2023/02/20 02:46:34;;;;;;;13.60;5.40;;;;;;;2.04;77.42;100743.54;104333;1278;99327;-77
2023/02/20 02:49:23;;;;;;;9.30;4.20;;;;;;;2.01;77.46;100737.27;104012;1274;98007;-76
2023/02/20 02:52:09;;;;;;;12.20;5.00;;;;;;;1.99;77.57;100734.42;103965;1277;97934;-77
2023/02/20 02:54:55;;;;;;;13.40;4.90;;;;;;;1.99;77.61;100737.67;104174;1277;98347;-77
2023/02/20 02:57:39;;;;;;;14.20;5.20;;;;;;;1.97;77.61;100735.91;104500;1274;101467;-78
2023/02/20 03:00:40;;;;;;;10.20;4.00;;;;;;;1.95;77.56;100738.87;104192;1280;99808;-76
2023/02/20 03:03:29;;;;;;;11.80;5.50;;;;;;;1.93;77.69;100734.11;104210;1279;98039;-77
2023/02/20 03:06:24;;;;;;;10.80;5.10;;;;;;;1.91;77.75;100727.36;104031;1279;97988;-77
2023/02/20 03:09:24;;;;;;;13.90;5.00;;;;;;;1.90;77.76;100720.58;104297;1277;98001;-77
2023/02/20 03:12:11;;;;;;;12.50;5.00;;;;;;;1.91;77.91;100729.50;104135;1276;102122;-77
2023/02/20 03:18:19;;;;;;;14.10;4.80;;;;;;;1.91;77.86;100732.67;104299;1280;99409;-78
2023/02/20 03:21:13;;;;;;;11.60;4.60;;;;;;;1.91;77.90;100729.66;104265;1277;98003;-77
2023/02/20 03:24:00;;;;;;;9.00;4.20;;;;;;;1.93;78.09;100729.85;104915;1279;98567;-77
2023/02/20 03:26:45;;;;;;;13.40;4.30;;;;;;;1.94;78.19;100725.69;104184;1279;101326;-77
2023/02/20 03:29:35;;;;;;;11.50;3.80;;;;;;;1.95;78.01;100720.55;104310;1280;99165;-78
2023/02/20 03:44:52;;;;;;;7.90;2.90;;;;;;;1.94;78.26;100702.96;103912;1279;100456;-76
2023/02/20 03:47:42;;;;;;;9.90;3.80;;;;;;;1.95;78.32;100705.95;103966;1277;97994;-76
2023/02/20 03:53:31;;;;;;;7.70;3.60;;;;;;;1.93;78.42;100703.10;104247;1279;99728;-77
2023/02/20 03:56:29;;;;;;;7.30;2.70;;;;;;;1.93;78.56;100701.67;104032;1280;102161;-76
2023/02/20 03:59:19;;;;;;;9.00;3.80;;;;;;;1.94;78.68;100703.91;104255;1278;101124;-77
2023/02/20 04:02:13;;;;;;;10.90;2.90;;;;;;;1.94;78.73;100700.23;103965;1281;98450;-78
2023/02/20 04:05:04;;;;;;;9.70;3.80;;;;;;;1.93;78.72;100699.35;103957;1277;98007;-77
2023/02/20 04:08:03;;;;;;;8.50;3.80;;;;;;;1.93;78.84;100694.11;106758;1274;96020;-77
2023/02/20 04:10:58;;;;;;;7.10;3.30;;;;;;;1.93;78.85;100691.98;104296;1279;101368;-77
2023/02/20 04:13:43;;;;;;;13.10;3.70;;;;;;;1.95;79.01;100683.76;104008;1277;99260;-77
2023/02/20 04:16:34;;;;;;;10.00;3.90;;;;;;;1.95;79.13;100674.70;104320;1277;99278;-77
2023/02/20 04:19:19;;;;;;;9.60;3.20;;;;;;;1.95;79.34;100673.19;104276;1279;98209;-76
2023/02/20 04:22:12;;;;;;;7.80;3.70;;;;;;;1.93;79.31;100671.02;104371;1274;98529;-77
2023/02/20 04:25:09;;;;;;;5.60;3.00;;;;;;;1.94;79.64;100666.02;104273;1280;102713;-76
2023/02/20 04:27:55;;;;;;;10.30;3.40;;;;;;;1.95;79.70;100661.21;104110;1280;99151;-77
2023/02/20 04:30:40;;;;;;;8.20;4.00;;;;;;;1.96;79.90;100658.81;104220;1279;98304;-77
2023/02/20 04:33:25;;;;;;;10.20;3.90;;;;;;;1.97;79.93;100664.05;104356;1280;98007;-77
2023/02/20 04:36:12;;;;;;;6.60;3.10;;;;;;;1.97;80.03;100666.34;103879;1276;98536;-78
2023/02/20 04:38:56;;;;;;;8.00;3.10;;;;;;;1.96;80.16;100661.05;104181;1276;102738;-78
2023/02/20 04:41:43;;;;;;;6.80;3.00;;;;;;;1.97;80.37;100657.87;104586;1279;99104;-77
2023/02/20 04:44:32;;;;;;;17.30;7.50;;;;;;;1.97;80.51;100657.68;104315;1276;97974;-77
2023/02/20 04:47:17;;;;;;;10.40;5.10;;;;;;;1.97;80.62;100653.47;104334;1277;98100;-78
2023/02/20 04:50:05;;;;;;;9.50;4.10;;;;;;;1.97;80.77;100649.23;104341;1279;98533;-77
2023/02/20 04:52:49;;;;;;;10.80;4.30;;;;;;;1.96;80.67;100649.95;104382;1279;102057;-77
2023/02/20 04:55:35;;;;;;;9.80;3.80;;;;;;;1.96;80.72;100650.71;104350;1274;100244;-77
2023/02/20 04:58:24;;;;;;;8.80;4.00;;;;;;;1.94;80.80;100644.02;103968;1280;99117;-77
2023/02/20 05:01:12;;;;;;;9.70;3.80;;;;;;;1.94;80.80;100645.64;104348;1279;98771;-77
2023/02/20 05:03:57;;;;;;;11.00;4.40;;;;;;;1.94;80.91;100636.32;104368;1277;98425;-77
2023/02/20 05:06:47;;;;;;;9.10;3.90;;;;;;;1.93;80.81;100628.95;104194;1279;102706;-77
2023/02/20 05:09:32;;;;;;;11.10;4.20;;;;;;;1.93;80.83;100624.20;104075;1274;99720;-77
2023/02/20 05:12:17;;;;;;;10.70;3.20;;;;;;;1.93;80.93;100619.83;104370;1274;99171;-76
2023/02/20 05:15:01;;;;;;;10.10;3.50;;;;;;;1.93;81.12;100614.52;104289;1279;98050;-77
2023/02/20 05:17:46;;;;;;;7.40;3.30;;;;;;;1.93;81.16;100610.67;104323;1279;98518;-77
2023/02/20 05:23:34;;;;;;;7.30;3.50;;;;;;;1.94;81.20;100604.41;104407;1274;99112;-76
2023/02/20 05:26:20;;;;;;;8.60;3.20;;;;;;;1.95;81.23;100595.36;104310;1274;98291;-78
2023/02/20 05:29:08;;;;;;;13.90;4.80;;;;;;;1.95;81.31;100594.95;104968;1278;97998;-77
2023/02/20 05:31:53;;;;;;;7.10;3.00;;;;;;;1.95;81.34;100600.41;105711;1274;99421;-78
2023/02/20 05:34:38;;;;;;;8.60;4.30;;;;;;;1.96;81.30;100608.81;104388;1274;101459;-77
2023/02/20 05:37:25;;;;;;;10.30;3.40;;;;;;;1.96;81.49;100606.63;104389;1274;100223;-77
2023/02/20 05:40:10;;;;;;;11.30;4.00;;;;;;;1.96;81.53;100604.17;104452;1279;99086;-77
2023/02/20 05:42:54;;;;;;;9.40;3.40;;;;;;;1.97;81.59;100605.38;104355;1274;97917;-77
2023/02/20 05:45:39;;;;;;;12.60;3.30;;;;;;;1.97;81.64;100602.33;104361;1279;98514;-76
2023/02/20 05:48:24;;;;;;;8.90;3.40;;;;;;;1.97;81.83;100601.99;104362;1279;101544;-77
2023/02/20 05:51:18;;;;;;;10.80;4.80;;;;;;;1.97;81.99;100591.43;104387;1274;100104;-77
2023/02/20 05:54:04;;;;;;;10.50;4.00;;;;;;;1.98;82.01;100578.73;104305;1274;97993;-77
2023/02/20 05:56:49;;;;;;;9.60;3.30;;;;;;;1.98;82.15;100573.55;104218;1277;98125;-76
2023/02/20 05:59:34;;;;;;;13.60;4.60;;;;;;;1.99;82.23;100568.42;104415;1278;98551;-78
2023/02/20 06:02:18;;;;;;;10.80;4.20;;;;;;;1.99;82.21;100570.87;104404;1274;101487;-79
2023/02/20 06:05:06;;;;;;;7.10;4.10;;;;;;;2.01;82.27;100570.11;104430;1275;99822;-77
2023/02/20 06:07:51;;;;;;;10.70;4.50;;;;;;;2.04;82.41;100573.77;104834;1278;98887;-76
2023/02/20 06:10:36;;;;;;;12.90;4.70;;;;;;;2.06;82.68;100573.90;104316;1279;97997;-77
2023/02/20 06:13:20;;;;;;;11.60;5.10;;;;;;;2.08;82.59;100564.92;104309;1279;98475;-77
2023/02/20 06:16:05;;;;;;;11.10;5.80;;;;;;;2.10;82.61;100564.59;104275;1274;101411;-77
2023/02/20 06:18:51;;;;;;;7.80;4.80;;;;;;;2.12;82.69;100561.45;104278;1293;99960;-77
2023/02/20 06:21:36;;;;;;;10.20;4.80;;;;;;;2.14;82.84;100558.02;104342;1275;97998;-76
2023/02/20 06:24:21;;;;;;;13.20;5.00;;;;;;;2.17;82.92;100557.25;104354;1274;97923;-77
2023/02/20 06:27:07;;;;;;;10.80;4.50;;;;;;;2.20;83.00;100557.20;104061;1280;97988;-78
2023/02/20 06:29:52;;;;;;;12.60;6.10;;;;;;;2.22;83.13;100557.20;104356;1279;101391;-77
2023/02/20 06:32:36;;;;;;;8.70;4.30;;;;;;;2.24;83.09;100549.91;104306;1274;100458;-76
2023/02/20 06:35:21;;;;;;;10.60;4.50;;;;;;;2.28;83.16;100544.52;104307;1274;99173;-77
2023/02/20 06:38:06;;;;;;;11.90;4.60;;;;;;;2.30;83.25;100536.02;104330;1277;98795;-76
2023/02/20 06:40:51;;;;;;;8.20;4.50;;;;;;;2.32;83.40;100535.29;104293;1280;98052;-76
2023/02/20 06:43:36;;;;;;;11.40;4.60;;;;;;;2.35;83.29;100537.16;104157;1279;102234;-77
2023/02/20 06:46:23;;;;;;;13.60;5.30;;;;;;;2.39;83.29;100542.15;104192;1274;100615;-77
2023/02/20 06:49:09;;;;;;;8.00;4.40;;;;;;;2.41;83.46;100532.91;104318;1280;97915;-77
2023/02/20 06:51:54;;;;;;;10.80;4.90;;;;;;;2.43;83.64;100522.88;104345;1279;97991;-77
2023/02/20 06:54:39;;;;;;;6.90;4.00;;;;;;;2.44;83.46;100525.80;104328;1279;98535;-78
2023/02/20 06:57:23;;;;;;;9.70;3.90;;;;;;;2.48;83.76;100527.05;104345;1278;102662;-77
2023/02/20 07:00:09;;;;;;;8.60;4.10;;;;;;;2.51;83.76;100522.58;104395;1279;99135;-76
2023/02/20 07:02:53;;;;;;;9.00;4.20;;;;;;;2.53;83.88;100525.17;104322;1279;99165;-77
2023/02/20 07:05:38;;;;;;;11.20;4.30;;;;;;;2.56;83.83;100526.51;104156;1275;97996;-77
2023/02/20 07:08:23;;;;;;;11.80;4.00;;;;;;;2.58;83.72;100529.49;104239;1276;99343;-77
2023/02/20 07:11:09;;;;;;;13.60;4.40;;;;;;;2.61;83.84;100521.61;104316;1278;101427;-76
2023/02/20 07:13:56;;;;;;;10.90;4.40;;;;;;;2.63;83.85;100514.21;104392;1276;99129;-76
2023/02/20 07:16:41;;;;;;;14.40;6.30;;;;;;;2.66;83.86;100512.71;104173;1278;98912;-76
2023/02/20 07:19:25;;;;;;;13.30;5.00;;;;;;;2.71;84.02;100512.07;104357;1278;97991;-77
2023/02/20 07:22:10;;;;;;;9.50;4.30;;;;;;;2.75;83.96;100507.79;104437;1277;99142;-78
2023/02/20 07:24:55;;;;;;;8.70;4.50;;;;;;;2.79;84.00;100510.94;104375;1277;102723;-77
2023/02/20 07:27:40;;;;;;;12.10;4.60;;;;;;;2.83;84.17;100512.50;104301;1279;99888;-78
2023/02/20 07:30:25;;;;;;;13.50;5.20;;;;;;;2.88;84.20;100508.57;104345;1279;98677;-77
2023/02/20 07:33:09;;;;;;;9.00;4.80;;;;;;;2.92;84.18;100508.52;104191;1280;97985;-76
2023/02/20 07:35:54;;;;;;;10.40;4.80;;;;;;;2.95;83.96;100505.19;104370;1279;98632;-77
2023/02/20 07:38:40;;;;;;;10.50;4.50;;;;;;;2.99;84.13;100503.13;104089;1277;101297;-76
2023/02/20 07:41:28;;;;;;;7.10;3.90;;;;;;;3.05;84.20;100496.73;104364;1279;99118;-80
2023/02/20 07:44:13;;;;;;;9.40;4.50;;;;;;;3.12;84.26;100492.02;105255;1277;98593;-83
2023/02/20 07:46:58;;;;;;;12.40;4.90;;;;;;;3.18;84.22;100493.77;105436;1279;98080;-82
2023/02/20 07:49:43;;;;;;;11.50;4.20;;;;;;;3.25;84.23;100489.58;105300;1279;98423;-82
2023/02/20 07:52:28;;;;;;;10.10;4.20;;;;;;;3.30;84.10;100480.59;105471;1279;101449;-82
2023/02/20 07:55:19;;;;;;;8.10;4.10;;;;;;;3.33;84.16;100471.70;105549;1279;99331;-91
2023/02/20 07:58:07;;;;;;;11.10;4.60;;;;;;;3.35;84.02;100451.72;105214;1279;98115;-81
2023/02/20 08:00:52;;;;;;;13.00;4.60;;;;;;;3.37;84.09;100440.23;104662;1277;97926;-83
2023/02/20 08:03:37;;;;;;;18.40;5.80;;;;;;;3.39;84.09;100440.23;105214;1279;98436;-80
2023/02/20 08:06:22;;;;;;;10.80;5.10;;;;;;;3.41;83.90;100440.71;105339;1279;102670;-82
2023/02/20 08:09:07;;;;;;;12.80;5.30;;;;;;;3.43;84.00;100437.52;104968;1276;99283;-81
2023/02/20 08:11:52;;;;;;;16.40;6.30;;;;;;;3.45;84.05;100430.84;105240;1277;97918;-81
2023/02/20 08:14:37;;;;;;;13.90;5.10;;;;;;;3.46;84.24;100425.27;104919;1279;98174;-81
2023/02/20 08:17:21;;;;;;;14.60;6.10;;;;;;;3.44;84.47;100425.66;105084;1277;98092;-81
2023/02/20 08:20:25;;;;;;;;;;;;;;;;;;;;;
2023/02/20 08:23:23;;;;;;;14.20;6.20;;;;;;;3.32;85.22;100419.20;104286;1287;99162;-85
2023/02/20 08:26:10;;;;;;;12.40;5.60;;;;;;;3.26;85.61;100413.45;104607;1276;100508;-81
2023/02/20 08:28:55;;;;;;;8.40;4.70;;;;;;;3.23;86.29;100411.40;103985;1282;98118;-83
2023/02/20 08:31:40;;;;;;;11.70;5.30;;;;;;;3.23;86.76;100405.05;103909;1282;97995;-74
2023/02/20 08:34:25;;;;;;;10.20;5.10;;;;;;;3.25;87.47;100392.36;104775;1279;103718;-85
2023/02/20 08:37:11;;;;;;;14.90;8.90;;;;;;;3.25;87.71;100392.70;104782;1276;99298;-76
2023/02/20 08:39:55;;;;;;;15.30;9.60;;;;;;;3.23;88.00;100390.07;104272;1279;98103;-84
2023/02/20 08:42:41;;;;;;;18.10;7.60;;;;;;;3.21;88.28;100383.71;104674;1276;97887;-76
2023/02/20 08:45:25;;;;;;;13.50;6.50;;;;;;;3.17;88.53;100376.19;104327;1279;98535;-83
2023/02/20 08:48:10;;;;;;;14.20;5.90;;;;;;;3.10;89.04;100366.71;103992;1280;101430;-74
2023/02/20 08:50:55;;;;;;;12.20;8.00;;;;;;;3.09;89.45;100363.15;104144;1277;100447;-74
2023/02/20 08:53:40;;;;;;;10.50;7.30;;;;;;;3.10;89.97;100361.68;104073;1277;98507;-82
2023/02/20 08:56:25;;;;;;;13.70;7.40;;;;;;;3.09;90.29;100359.25;103940;1277;97950;-74
2023/02/20 08:59:09;;;;;;;12.10;9.70;;;;;;;3.08;90.49;100362.75;104247;1277;98769;-74
2023/02/20 09:01:54;;;;;;;14.10;7.30;;;;;;;3.07;90.79;100364.21;104312;1279;101438;-74
2023/02/20 09:04:39;;;;;;;11.70;8.70;;;;;;;3.06;91.03;100357.29;103988;1279;100474;-73
2023/02/20 09:07:24;;;;;;;15.30;9.60;;;;;;;3.04;91.49;100346.55;103922;1277;98004;-75
2023/02/20 09:10:09;;;;;;;17.00;8.70;;;;;;;3.03;91.82;100325.80;104417;1280;97990;-81
2023/02/20 09:12:54;;;;;;;12.20;8.10;;;;;;;3.02;92.09;100306.86;104834;1277;98189;-84
2023/02/20 09:15:39;;;;;;;17.10;11.70;;;;;;;3.01;92.43;100296.51;105089;1279;101301;-82
2023/02/20 09:18:25;;;;;;;16.30;10.40;;;;;;;3.01;92.52;100278.71;105055;1277;100345;-81
2023/02/20 09:21:12;;;;;;;25.80;15.80;;;;;;;3.02;92.96;100264.92;105372;1277;98790;-81
2023/02/20 09:23:56;;;;;;;22.00;12.10;;;;;;;3.02;93.24;100261.35;104972;1279;99011;-81
2023/02/20 09:26:41;;;;;;;70.20;28.40;;;;;;;3.02;93.43;100256.75;104542;1281;99760;-76
2023/02/20 09:29:27;;;;;;;25.60;15.10;;;;;;;3.03;93.67;100236.86;104354;1280;102753;-76
2023/02/20 09:32:13;;;;;;;13.20;9.30;;;;;;;3.02;93.87;100228.35;104337;1279;99235;-76
2023/02/20 09:34:57;;;;;;;14.80;9.10;;;;;;;3.01;94.09;100214.90;104243;1280;99092;-75
2023/02/20 09:37:43;;;;;;;16.30;8.90;;;;;;;2.99;94.31;100205.02;104857;1275;97990;-78
2023/02/20 09:40:30;;;;;;;15.20;9.20;;;;;;;2.96;94.33;100204.63;104640;1277;99610;-78
2023/02/20 09:43:38;;;;;;;14.00;9.40;;;;;;;2.93;94.50;100194.31;105021;1276;102642;-78
2023/02/20 09:46:24;;;;;;;20.90;9.60;;;;;;;2.90;94.77;100188.92;104394;1279;99247;-78
2023/02/20 09:49:14;;;;;;;17.40;8.60;;;;;;;2.88;94.86;100180.47;104440;1277;98165;-77
2023/02/20 09:52:03;;;;;;;16.10;7.90;;;;;;;2.87;94.92;100166.66;104477;1279;97947;-78
2023/02/20 09:54:53;;;;;;;16.30;8.60;;;;;;;2.83;95.12;100156.31;104432;1287;98536;-78
2023/02/20 09:57:40;;;;;;;13.80;8.00;;;;;;;2.80;95.35;100156.42;104131;1274;102025;-78
2023/02/20 10:00:31;;;;;;;10.60;8.00;;;;;;;2.77;95.50;100149.20;104592;1280;99138;-81
2023/02/20 10:03:31;;;;;;;19.50;10.40;;;;;;;2.76;95.81;100147.28;104799;1276;99120;-78
2023/02/20 10:06:20;;;;;;;18.00;9.40;;;;;;;2.76;96.08;100140.42;104859;1279;98716;-78
2023/02/20 10:09:09;;;;;;;13.60;8.00;;;;;;;2.75;96.32;100133.67;104985;1280;99594;-86
2023/02/20 10:12:30;;;;;;;11.80;8.20;;;;;;;2.74;96.43;100136.03;105406;1276;101350;-78
2023/02/20 10:15:23;;;;;;;;;;;;;;;2.74;96.54;100125.81;105129;1276;99234;-79
2023/02/20 10:18:47;;;;;;;14.30;7.80;;;;;;;2.74;96.82;100107.72;104766;1276;99166;-79
2023/02/20 10:22:13;;;;;;;13.30;8.40;;;;;;;2.75;97.10;100096.48;104625;1286;97908;-80
2023/02/20 10:25:24;;;;;;;17.20;10.00;;;;;;;2.76;97.27;100097.58;104832;1276;98650;-77
2023/02/20 10:28:11;;;;;;;;;;;;;;;2.78;97.60;100088.11;105047;1280;102579;-79
2023/02/20 10:31:01;;;;;;;22.70;12.40;;;;;;;2.78;97.74;100071.52;104404;1276;99173;-78
2023/02/20 10:34:20;;;;;;;14.00;9.90;;;;;;;2.79;97.80;100063.85;104939;1276;98667;-86
2023/02/20 10:37:18;;;;;;;15.70;9.30;;;;;;;2.80;98.05;100049.13;104145;1277;98487;-90
2023/02/20 10:40:10;;;;;;;13.80;10.00;;;;;;;2.79;98.04;100047.73;104019;1277;97985;-89
2023/02/20 10:43:10;;;;;;;11.50;7.40;;;;;;;2.79;98.14;100031.38;104501;1279;101702;-79
2023/02/20 10:46:07;;;;;;;15.10;7.70;;;;;;;2.78;98.33;100022.85;104841;1277;99955;-78
2023/02/20 10:49:01;;;;;;;23.20;11.40;;;;;;;2.76;98.41;100019.44;105243;1277;98224;-78
2023/02/20 10:51:50;;;;;;;22.60;10.80;;;;;;;2.77;98.68;100011.58;104628;1283;97962;-78
2023/02/20 10:54:46;;;;;;;29.40;15.50;;;;;;;2.79;98.89;100006.84;105031;1279;97784;-81
2023/02/20 10:57:47;;;;;;;29.40;13.80;;;;;;;2.83;99.36;99999.95;105162;1279;101402;-79
2023/02/20 11:00:46;;;;;;;32.70;16.60;;;;;;;2.88;99.62;100010.02;104905;1279;100568;-76
2023/02/20 11:03:40;;;;;;;21.00;10.70;;;;;;;2.93;99.85;99998.17;104258;1287;97990;-79
2023/02/20 11:06:44;;;;;;;19.90;10.30;;;;;;;2.97;100.00;99978.02;104018;1279;97994;-76
2023/02/20 11:09:29;;;;;;;16.70;9.60;;;;;;;2.99;100.00;99893.85;103866;1279;98507;-75
2023/02/20 11:12:24;;;;;;;16.30;9.30;;;;;;;3.02;100.00;99887.23;104394;1279;102709;-77
2023/02/20 11:15:13;;;;;;;13.90;9.30;;;;;;;3.08;100.00;99902.17;104510;1279;99295;-77
2023/02/20 11:17:58;;;;;;;14.40;9.20;;;;;;;3.14;100.00;99881.23;104159;1276;100125;-77
2023/02/20 11:20:45;;;;;;;12.90;8.20;;;;;;;3.19;100.00;99857.25;104914;1277;97987;-77
2023/02/20 11:23:35;;;;;;;14.50;8.50;;;;;;;3.26;100.00;99842.46;104477;1280;98009;-78
2023/02/20 11:26:20;;;;;;;27.70;13.40;;;;;;;3.33;100.00;99829.69;104758;1276;102698;-80
2023/02/20 11:29:15;;;;;;;20.60;9.30;;;;;;;3.40;100.00;99827.67;104941;1276;99757;-78
2023/02/20 11:32:29;;;;;;;15.30;9.20;;;;;;;3.46;100.00;99819.48;104341;1280;98978;-78
2023/02/20 11:35:21;;;;;;;14.10;9.50;;;;;;;3.52;100.00;99815.34;104712;1277;98549;-78
2023/02/20 11:38:22;;;;;;;17.50;10.30;;;;;;;3.58;100.00;99802.38;104386;1280;98739;-79
2023/02/20 11:41:20;;;;;;;16.40;9.80;;;;;;;3.63;100.00;99794.23;104405;1277;101448;-80
2023/02/20 11:44:17;;;;;;;16.60;9.20;;;;;;;3.68;100.00;99773.84;104416;1276;100011;-81
2023/02/20 11:47:08;;;;;;;17.60;9.40;;;;;;;3.74;100.00;99760.38;104376;1280;99345;-80
2023/02/20 11:50:13;;;;;;;;;;;;;;;3.80;100.00;99739.95;104604;1279;98877;-80
2023/02/20 11:53:06;;;;;;;13.90;7.90;;;;;;;3.84;100.00;99740.88;104693;1279;98517;-81
2023/02/20 11:56:15;;;;;;;13.00;8.90;;;;;;;3.89;100.00;99725.69;104293;1276;102332;-79
2023/02/20 11:59:25;;;;;;;13.90;8.60;;;;;;;3.95;100.00;99702.27;104442;1280;100695;-78
2023/02/20 12:02:16;;;;;;;14.50;9.00;;;;;;;4.01;100.00;99688.89;104155;1287;98324;-77
2023/02/20 12:05:09;;;;;;;17.50;9.10;;;;;;;4.06;100.00;99666.27;104300;1276;97779;-78
2023/02/20 12:07:56;;;;;;;14.80;9.40;;;;;;;4.13;100.00;99654.73;106351;1278;96697;-79
2023/02/20 12:10:45;;;;;;;14.60;9.50;;;;;;;4.19;100.00;99655.77;104226;1279;101581;-78
2023/02/20 12:13:35;;;;;;;14.40;8.90;;;;;;;4.28;100.00;99652.70;104464;1276;100483;-78
2023/02/20 12:16:48;;;;;;;17.70;10.40;;;;;;;4.37;100.00;99646.02;104407;1276;98105;-77
2023/02/20 12:19:53;;;;;;;12.00;8.60;;;;;;;4.47;100.00;99643.14;104327;1280;97956;-79
2023/02/20 12:22:44;;;;;;;15.10;8.90;;;;;;;4.55;100.00;99637.33;104355;1280;97969;-78
2023/02/20 12:25:58;;;;;;;17.40;10.90;;;;;;;4.63;100.00;99638.23;104852;1276;101430;-78
2023/02/20 12:28:58;;;;;;;18.60;12.60;;;;;;;4.71;100.00;99632.60;104833;1277;99423;-77
2023/02/20 12:31:58;;;;;;;28.20;18.90;;;;;;;4.78;100.00;99654.29;104077;1276;98989;-77
2023/02/20 12:35:24;;;;;;;17.30;11.60;;;;;;;4.84;100.00;99644.94;104096;1274;98110;-78
2023/02/20 12:38:33;;;;;;;14.10;9.60;;;;;;;4.93;100.00;99636.08;104572;1276;97934;-78
2023/02/20 12:41:40;;;;;;;18.10;11.10;;;;;;;5.03;100.00;99644.30;104296;1280;101719;-76
2023/02/20 12:44:34;;;;;;;22.40;14.90;;;;;;;5.12;100.00;99635.09;104285;1274;99116;-76
2023/02/20 12:47:30;;;;;;;22.00;13.40;;;;;;;5.18;100.00;99645.54;104259;1277;99539;-75
2023/02/20 12:50:29;;;;;;;18.00;11.60;;;;;;;5.24;100.00;99640.62;104294;1277;98909;-78
2023/02/20 12:53:32;;;;;;;20.00;13.90;;;;;;;5.29;100.00;99629.95;104421;1280;96980;-85
2023/02/20 12:56:42;;;;;;;21.70;14.10;;;;;;;5.32;100.00;99633.11;103896;1276;102310;-81
2023/02/20 12:59:30;;;;;;;18.00;11.40;;;;;;;5.35;100.00;99616.79;105449;1274;100461;-81
2023/02/20 13:02:30;;;;;;;17.30;10.40;;;;;;;5.39;100.00;99612.27;105096;1274;99079;-85
2023/02/20 13:05:21;;;;;;;16.40;10.70;;;;;;;5.43;100.00;99609.73;104550;1282;98020;-76
2023/02/20 13:08:31;;;;;;;16.20;10.70;;;;;;;5.47;100.00;99610.42;103889;1277;97980;-78
2023/02/20 13:11:21;;;;;;;15.30;10.40;;;;;;;5.52;100.00;99610.73;104153;1280;101361;-77
2023/02/20 13:14:12;;;;;;;20.00;10.30;;;;;;;5.57;100.00;99599.41;105632;1274;100505;-80
2023/02/20 13:17:32;;;;;;;15.70;10.40;;;;;;;5.61;100.00;99587.20;105642;1275;99223;-80
2023/02/20 13:20:24;;;;;;;16.10;10.30;;;;;;;5.66;100.00;99582.33;103781;1279;98004;-75
2023/02/20 13:23:17;;;;;;;19.00;11.30;;;;;;;5.71;100.00;99572.16;104665;1275;98507;-84
2023/02/20 13:26:28;;;;;;;15.80;10.40;;;;;;;5.78;100.00;99561.70;105223;1275;101345;-76